RJNF(METAR)
02/18 15:00
RJNF 180600Z 33004KT 9999 SCT035 11/03 Q1024 RMK A3026=
戻る
トップページへ戻る
IMOC Co,.Ltd.